Antholz Obertal
05.09.2026, 18:45















57 Stazions meteo
| Favoric | Stazion | Autëza | Data - ëura |
t (°C) |
N (mm) |
ff (km/h) |
bb (km/h) |
dd |
rH (%) |
p (hPa) |
sd (h) |
EG (W/m²) |
|---|---|---|---|---|---|---|---|---|---|---|---|---|
| Antholz Obertal | 1327 m | 05.09.2026, 18:45 | 21.7 | 0.0 | 12.6 | 27.4 | NO(49.1°) | 42 | 1016.2 | 03:04 | 61 | |
| Auer | 254 m | 05.09.2026, 18:45 | 29.7 | 0.0 | - | - | - | 54 | 1014.4 | 06:17 | 113 | |
| Barbian Kollmann | 463 m | 05.09.2026, 18:45 | 25.2 | 0.0 | 4.3 | 7.2 | N(353°) | 57 | 1015.2 | 06:05 | 36 | |
| Branzoll | 227 m | 05.09.2026, 18:45 | 27.2 | 0.0 | 2.9 | 7.2 | V(252°) | 62 | 1013.7 | 06:55 | 58 | |
| Bulsan | 245 m | 05.09.2026, 18:45 | 30.9 | 0.0 | 1.4 | 6.5 | NW(320.5°) | 39 | 1013.8 | 08:06 | 97 | |
| Burnech | 831 m | 05.09.2026, 18:45 | 26.5 | 0.0 | 20.5 | 31.3 | NO(25.7°) | 33 | 1015.4 | 07:08 | 164 | |
| Corvara | 1530 m | 05.09.2026, 18:45 | 19.4 | 0.0 | 6.8 | 14.0 | NW(327°) | 52 | 1016.0 | 04:13 | 75 | |
| Deutschnofen | 1470 m | 05.09.2026, 18:45 | 22.1 | 0.0 | 12.2 | 18.4 | N(338.9°) | 45 | 1014.2 | 08:57 | 196 | |
| Franzensfeste Grasstein | 833 m | 05.09.2026, 18:45 | 24.1 | 0.0 | 13.0 | 18.0 | SV(237°) | 42 | 1015.2 | - | - | |
| Gargazon | 253 m | 05.09.2026, 18:45 | 29.7 | 0.0 | 11.2 | 17.3 | NW(313.6°) | 36 | 1015.3 | 06:32 | 79 | |
| Hintermartell | 1714 m | 05.09.2026, 18:45 | 15.0 | 0.0 | 0.4 | 3.2 | SV(236.2°) | 73 | 1022.5 | 01:34 | 49 | |
| Jenesien | 972 m | 05.09.2026, 18:45 | 26.1 | 0.0 | 5.8 | 17.3 | N(337.5°) | 33 | 1015.0 | 08:02 | 59 | |
| Jouf de Ciarej | 1713 m | 05.09.2026, 18:45 | 19.9 | 0.0 | 7.6 | 13.3 | V(272.5°) | 46 | 1015.0 | 08:03 | 133 | |
| Kaltern Oberplanitzing | 492 m | 05.09.2026, 18:45 | 27.0 | 0.0 | 9.4 | 19.4 | N(355.9°) | 34 | 1015.5 | 06:40 | 26 | |
| Laas Eyrs | 874 m | 05.09.2026, 18:45 | 21.9 | 0.0 | 6.1 | 10.1 | NW(292.9°) | 54 | 1017.7 | 03:38 | 56 | |
| Laimburg | 224 m | 05.09.2026, 18:45 | 26.9 | 0.0 | 1.4 | 5.4 | V(285.5°) | 65 | 1016.2 | 07:00 | 38 | |
| Langtaufers Grub | 1844 m | 05.09.2026, 18:45 | 16.9 | 0.0 | 4.0 | 10.4 | O(67.7°) | 50 | 1018.2 | 01:44 | 33 | |
| Maran | 333 m | 05.09.2026, 18:45 | 30.8 | 0.0 | 12.6 | 40.0 | N(21°) | 30 | 1014.9 | 05:57 | 33 | |
| Marienberg | 1312 m | 05.09.2026, 18:45 | 21.1 | 0.0 | - | - | - | 40 | 1017.4 | 02:56 | 50 | |
| Mühlwald | 1140 m | 05.09.2026, 18:45 | 22.4 | 0.0 | - | - | - | 42 | 1017.0 | - | - | |
| Naturns | 537 m | 05.09.2026, 18:45 | 27.5 | 0.0 | 7.9 | 13.0 | SV(242.4°) | 32 | 1016.6 | 06:25 | 140 | |
| Obervintl | 747 m | 05.09.2026, 18:45 | 27.8 | 0.0 | 11.5 | 26.3 | V(256.8°) | 28 | 1015.8 | 06:55 | 134 | |
| Pens | 1452 m | 05.09.2026, 18:45 | 17.4 | 0.0 | - | - | - | 71 | 1018.9 | - | - | |
| Persenon | 585 m | 05.09.2026, 18:45 | 26.2 | 0.0 | 11.5 | 19.1 | NW(324.2°) | 46 | 1015.5 | 03:58 | 28 | |
| Pfelders | 1622 m | 05.09.2026, 18:45 | 17.4 | 0.0 | 5.0 | 23.8 | NW(317.6°) | 47 | 1018.1 | 02:24 | 27 | |
| Pfitsch St. Jakob | 1438 m | 05.09.2026, 18:45 | 19.3 | 0.0 | 7.9 | 19.4 | V(261.7°) | 53 | 1017.6 | 05:56 | 144 | |
| Pflersch | 1152 m | 05.09.2026, 18:45 | 20.0 | 0.0 | 8.6 | 27.0 | SO(143.1°) | 56 | 1018.5 | 01:41 | 23 | |
| Pfunders | 1169 m | 05.09.2026, 18:45 | 19.9 | 0.0 | 9.0 | 16.9 | V(255.4°) | 52 | 1016.3 | 02:32 | 17 | |
| Platt in Passeier | 1143 m | 05.09.2026, 18:45 | 20.8 | 0.0 | 6.8 | 10.4 | SV(225.7°) | 46 | 1017.6 | 01:14 | 28 | |
| Prettau | 1448 m | 05.09.2026, 18:45 | 18.5 | 0.0 | 8.3 | 20.9 | N(18.1°) | 58 | 1018.3 | 02:56 | 36 | |
| Radein | 1550 m | 05.09.2026, 18:45 | 21.2 | 0.0 | 6.8 | 20.5 | NW(323.6°) | 40 | 1016.0 | 06:01 | 53 | |
| Rein in Taufers | 1562 m | 05.09.2026, 18:45 | 18.4 | 0.0 | 3.6 | 10.4 | V(285.7°) | 56 | 1017.5 | 03:56 | 93 | |
| Ridnaun | 1365 m | 05.09.2026, 18:45 | 18.7 | 0.0 | - | - | - | 63 | 1021.3 | - | - | |
| Ritten Siffian | 989 m | 05.09.2026, 18:45 | 25.1 | 0.0 | 15.1 | 20.5 | NO(23.3°) | 37 | 1015.1 | 07:05 | 121 | |
| S. Martin de Tor | 1151 m | 05.09.2026, 18:45 | 20.3 | 0.0 | 3.2 | 10.1 | V(280.9°) | 51 | 1019.5 | 05:43 | 26 | |
| Salurn | 214 m | 05.09.2026, 18:45 | 27.5 | 0.0 | 6.1 | 9.4 | V(272.9°) | 57 | 1015.4 | 02:36 | 45 | |
| Sand i.T. Mühlen | 850 m | 05.09.2026, 18:45 | 23.8 | 0.0 | 12.6 | 21.2 | N(340.5°) | 51 | 1016.5 | 04:23 | 42 | |
| Sarnthein | 970 m | 05.09.2026, 18:45 | 23.4 | 0.0 | 10.1 | 17.6 | N(8.7°) | 45 | 1016.3 | 04:21 | 33 | |
| Schnals Vernagt | 1697 m | 05.09.2026, 18:45 | 18.9 | 0.0 | - | - | - | 41 | 1018.4 | - | - | |
| Sëlva | 1594 m | 05.09.2026, 18:45 | 18.0 | 0.0 | - | - | - | 60 | 1017.4 | - | - | |
| Sexten | 1322 m | 05.09.2026, 18:45 | 20.9 | 0.0 | 10.8 | 19.4 | NW(321.3°) | 43 | 1014.1 | 04:40 | 30 | |
| St. Magdalena in Gsies | 1414 m | 05.09.2026, 18:45 | 18.4 | 0.0 | 11.9 | 24.1 | N(20.7°) | 61 | 1021.0 | 02:39 | 49 | |
| St. Martin in Passeier | 588 m | 05.09.2026, 18:45 | 26.9 | 0.0 | 5.8 | 9.4 | N(17.7°) | 35 | 1017.2 | 04:21 | 26 | |
| St. Valentin a.d. Haide | 1500 m | 05.09.2026, 18:45 | 18.8 | 0.0 | 7.2 | 12.2 | NW(303.4°) | 52 | 1018.2 | 06:01 | 67 | |
| St. Veit in Prags | 1350 m | 05.09.2026, 18:45 | 20.1 | 0.0 | - | - | - | 54 | 1018.4 | - | - | |
| St. Walburg | 1142 m | 05.09.2026, 18:45 | 24.2 | 0.0 | 10.4 | 23.0 | S(191.9°) | 36 | 1015.9 | 05:51 | 54 | |
| Sterzing | 939 m | 05.09.2026, 18:45 | 22.6 | 0.0 | 21.6 | 32.4 | NW(337.1°) | 53 | 1018.5 | 04:37 | 162 | |
| Sulaneres | 698 m | 05.09.2026, 18:45 | 24.9 | 0.0 | 15.1 | 19.4 | V(265.3°) | 51 | 1016.8 | 05:13 | 37 | |
| Sulden | 1902 m | 05.09.2026, 18:45 | 15.3 | 0.0 | - | - | - | 65 | 1018.7 | 02:18 | 57 | |
| Terenten | 1350 m | 05.09.2026, 18:45 | 21.9 | 0.0 | 11.5 | 18.0 | V(290.7°) | 37 | 1015.9 | 07:05 | 152 | |
| Toblach | 1218 m | 05.09.2026, 18:45 | 23.5 | 0.0 | 15.8 | 24.8 | V(267.9°) | 39 | 1015.8 | 05:57 | 122 | |
| Ulten Weißbrunn | 1883 m | 05.09.2026, 18:45 | 15.3 | 0.0 | - | - | - | 59 | 1018.8 | 03:48 | 31 | |
| Vals | 1409 m | 05.09.2026, 18:45 | 18.7 | 0.0 | 7.9 | 16.2 | NW(324.5°) | 52 | 1017.9 | 06:00 | 28 | |
| Valsperch | 1129 m | 05.09.2026, 18:45 | 23.6 | 0.0 | 13.3 | 21.2 | V(255.1°) | 38 | 1015.9 | 07:27 | 105 | |
| Villnöss | 1327 m | 05.09.2026, 18:45 | 21.8 | 0.0 | 4.7 | 13.7 | SO(114.7°) | 42 | 1016.0 | 05:21 | 108 | |
| Völs am Schlern | 840 m | 05.09.2026, 18:45 | 26.4 | 0.0 | 2.5 | 8.3 | NO(24.2°) | 40 | 1017.9 | 07:04 | 93 | |
| Welschnofen | 1126 m | 05.09.2026, 18:45 | 24.8 | 0.0 | - | - | - | 41 | 1015.6 | 07:57 | 163 |
Lijënda di dac muserei:
t:Temperatura dl'aria (°C)
N:Prezipitazions do mesanuet (mm)
ff:Slune mesan dl vënt (km/h)
bb:Majer slune dl vënt (km/h)
dd:Direzion dl vënt
rH:Tume relatif (%)
p:Prescion dl'aria (hPa)
sd:Dureda dl surëdl (h)
EG:Raiazion dl surëdl (W/m²)